Time;durP1;ratioP1;P1;durP2;ratioP2;P2;SDS_P1;SDS_P2;PMS_P1;PMS_P2;Temp;Humidity;BMP_temperature;BMP_pressure;BME280_temperature;BME280_humidity;BME280_pressure;Samples;Min_cycle;Max_cycle;Signal;HPM_P1;HPM_P2
2021/05/15 00:00:29;;;;;;;74.60;9.85;;;12.20;99.90;;;;;;6213797;23;20012;-82
2021/05/15 07:30:27;;;;;;;38.65;7.20;;;12.70;99.90;;;;;;6094881;22;20096;-90
2021/05/15 07:32:56;;;;;;;46.40;7.45;;;12.80;99.90;;;;;;6213683;23;20036;-89
2021/05/15 07:35:22;;;;;;;;;;;12.90;99.90;;;;;;6214234;23;20032;-89
2021/05/15 07:37:49;;;;;;;38.92;7.03;;;13.00;99.90;;;;;;6214900;23;19923;-90
2021/05/15 07:40:15;;;;;;;44.90;7.50;;;13.10;99.90;;;;;;6212978;23;20009;-91
2021/05/15 07:42:40;;;;;;;58.97;7.28;;;13.10;99.90;;;;;;6213667;23;20009;-91
2021/05/15 07:45:07;;;;;;;41.28;7.05;;;13.10;99.90;;;;;;6213667;23;20387;-90
2021/05/15 07:47:33;;;;;;;45.85;7.80;;;13.20;99.90;;;;;;6213616;23;20365;-89
2021/05/15 07:49:58;;;;;;;40.90;6.90;;;13.20;99.90;;;;;;6213677;23;20564;-88
2021/05/15 07:52:27;;;;;;;48.90;7.07;;;13.30;99.90;;;;;;6213315;23;20432;-91
2021/05/15 07:54:53;;;;;;;;;;;13.30;99.90;;;;;;6215836;23;20062;-92
2021/05/15 07:57:19;;;;;;;57.40;8.68;;;13.20;99.90;;;;;;6213779;23;19931;-91
2021/05/15 07:59:45;;;;;;;43.08;7.15;;;13.20;99.90;;;;;;6216064;23;20009;-91
2021/05/15 08:02:14;;;;;;;49.47;8.15;;;13.20;99.90;;;;;;6215825;23;20009;-90
2021/05/15 08:04:40;;;;;;;58.40;8.20;;;13.20;99.90;;;;;;6220836;23;20008;-92
2021/05/15 08:07:06;;;;;;;52.80;7.60;;;13.20;99.90;;;;;;6217275;23;20031;-92
2021/05/15 08:09:31;;;;;;;43.03;7.25;;;13.30;99.90;;;;;;6220383;23;20035;-93
2021/05/15 08:11:57;;;;;;;52.42;9.27;;;13.40;99.90;;;;;;6220252;23;20008;-91
2021/05/15 08:14:23;;;;;;;52.13;7.60;;;13.40;99.90;;;;;;6228019;23;20013;-90
2021/05/15 08:16:49;;;;;;;49.97;7.55;;;13.50;99.90;;;;;;6227852;23;20440;-90
2021/05/15 08:19:14;;;;;;;54.67;8.15;;;13.50;99.90;;;;;;6216617;23;20031;-90
2021/05/15 08:21:40;;;;;;;61.70;9.77;;;13.50;99.90;;;;;;6216212;23;20079;-90
2021/05/15 08:24:06;;;;;;;57.05;7.53;;;13.50;99.90;;;;;;6215180;23;20389;-88
2021/05/15 08:26:32;;;;;;;56.88;9.00;;;13.60;99.90;;;;;;6215158;23;20063;-91
2021/05/15 08:28:58;;;;;;;50.60;7.72;;;13.70;99.90;;;;;;6215778;23;20005;-89
2021/05/15 08:31:23;;;;;;;54.42;9.20;;;13.80;99.90;;;;;;6200580;23;20029;-91
2021/05/15 08:33:49;;;;;;;52.30;8.93;;;13.90;99.90;;;;;;6189154;23;20528;-93
2021/05/15 08:36:15;;;;;;;53.08;8.05;;;14.00;99.90;;;;;;6186135;23;20448;-90
2021/05/15 08:38:42;;;;;;;47.85;7.43;;;14.00;99.90;;;;;;6185968;23;20009;-91
2021/05/15 08:41:08;;;;;;;41.20;7.03;;;14.00;99.90;;;;;;6185107;23;20016;-92
2021/05/15 08:43:39;;;;;;;52.78;8.15;;;14.10;99.90;;;;;;6186938;23;20336;-90
2021/05/15 08:46:13;;;;;;;44.80;7.97;;;14.10;99.90;;;;;;6184964;23;20005;-91
2021/05/15 08:48:42;;;;;;;42.67;7.28;;;14.20;99.90;;;;;;6185991;23;20013;-89
2021/05/15 08:51:08;;;;;;;52.30;8.52;;;14.10;99.90;;;;;;6185041;23;20318;-90
2021/05/15 08:53:36;;;;;;;44.95;7.43;;;14.10;99.90;;;;;;6186628;23;20009;-90
2021/05/15 08:56:02;;;;;;;59.08;8.77;;;14.00;99.90;;;;;;6186618;23;20051;-91
2021/05/15 08:58:27;;;;;;;54.47;9.57;;;14.00;99.90;;;;;;6184637;23;20385;-89
2021/05/15 09:00:53;;;;;;;46.92;8.05;;;14.00;99.90;;;;;;6184986;23;20033;-91
2021/05/15 09:03:20;;;;;;;63.45;9.18;;;14.00;99.90;;;;;;6184720;23;20041;-90
2021/05/15 09:05:50;;;;;;;49.85;8.15;;;14.00;99.90;;;;;;6184949;23;20075;-90
2021/05/15 09:08:18;;;;;;;54.92;7.82;;;14.00;99.90;;;;;;6184186;23;20017;-88
2021/05/15 09:10:48;;;;;;;44.00;8.00;;;14.00;99.90;;;;;;6184906;23;20024;-91
2021/05/15 09:13:22;;;;;;;51.60;7.65;;;14.00;99.90;;;;;;6185368;23;20314;-91
2021/05/15 09:15:57;;;;;;;39.47;6.80;;;14.20;99.90;;;;;;6183810;23;20017;-90
2021/05/15 09:18:33;;;;;;;49.92;7.93;;;14.30;99.90;;;;;;6184043;23;20083;-90
2021/05/15 09:21:03;;;;;;;47.22;7.25;;;14.40;99.90;;;;;;6186028;23;20017;-92
2021/05/15 09:23:35;;;;;;;43.58;7.20;;;14.60;99.90;;;;;;6184271;23;20023;-89
2021/05/15 09:26:10;;;;;;;58.33;8.93;;;14.70;99.90;;;;;;6184379;23;20024;-91
2021/05/15 09:28:44;;;;;;;44.65;7.53;;;14.60;99.90;;;;;;6172816;23;20021;-90
2021/05/15 09:31:14;;;;;;;52.83;7.50;;;14.40;99.90;;;;;;6183180;23;20037;-89
2021/05/15 09:34:02;;;;;;;44.28;7.30;;;14.40;99.90;;;;;;6184796;23;20063;-90
2021/05/15 09:36:35;;;;;;;52.30;8.68;;;14.30;99.90;;;;;;6174201;23;21077;-90
2021/05/15 09:39:21;;;;;;;40.72;8.05;;;14.30;99.90;;;;;;6186168;23;20021;-89
2021/05/15 09:41:50;;;;;;;47.90;6.80;;;14.30;99.90;;;;;;6185449;23;20463;-91
2021/05/15 09:44:26;;;;;;;37.05;7.40;;;14.30;99.90;;;;;;6183882;23;20025;-90
2021/05/15 09:46:54;;;;;;;40.20;7.10;;;14.30;99.90;;;;;;6184985;23;20017;-88
2021/05/15 09:49:24;;;;;;;43.33;7.45;;;14.30;99.90;;;;;;6183105;23;20028;-89
2021/05/15 09:51:54;;;;;;;43.85;7.03;;;14.30;99.90;;;;;;6184594;23;20396;-89
2021/05/15 09:54:26;;;;;;;32.80;6.05;;;14.40;99.90;;;;;;6186064;23;20092;-90
2021/05/15 09:57:11;;;;;;;36.40;5.85;;;14.40;99.90;;;;;;6188273;23;20075;-88
2021/05/15 09:59:39;;;;;;;33.03;5.82;;;14.40;99.90;;;;;;6185562;23;20448;-92
2021/05/15 10:02:15;;;;;;;33.35;5.85;;;14.40;99.90;;;;;;6183465;23;20017;-88
2021/05/15 10:04:44;;;;;;;30.80;5.72;;;14.50;99.90;;;;;;6185377;23;20079;-88
2021/05/15 10:07:19;;;;;;;29.98;5.80;;;14.50;99.90;;;;;;6184503;23;20064;-89
2021/05/15 10:09:46;;;;;;;31.27;5.90;;;14.50;99.90;;;;;;6185236;23;20028;-89
2021/05/15 10:12:18;;;;;;;31.58;5.68;;;14.60;99.90;;;;;;6184769;23;20025;-89
2021/05/15 10:14:45;;;;;;;28.05;5.53;;;14.70;99.90;;;;;;6184329;23;20017;-92
2021/05/15 10:17:13;;;;;;;35.95;7.07;;;14.80;99.90;;;;;;6184016;23;20018;-90
2021/05/15 10:19:40;;;;;;;34.00;6.30;;;14.70;99.90;;;;;;6185174;23;20017;-90
2021/05/15 10:22:07;;;;;;;31.25;5.93;;;14.80;99.90;;;;;;6183701;23;20314;-89
2021/05/15 10:24:36;;;;;;;48.00;6.95;;;14.70;99.90;;;;;;6184988;23;20017;-89
2021/05/15 10:27:04;;;;;;;32.83;6.38;;;14.70;99.90;;;;;;6187431;23;20020;-90
2021/05/15 10:29:41;;;;;;;33.97;5.95;;;14.60;99.90;;;;;;6155514;23;20484;-90
2021/05/15 10:32:36;;;;;;;30.75;5.70;;;14.50;99.90;;;;;;6157944;23;20080;-89
2021/05/15 10:35:06;;;;;;;23.67;4.82;;;14.60;99.90;;;;;;6155635;23;20021;-89
2021/05/15 10:37:39;;;;;;;29.73;5.90;;;14.60;99.90;;;;;;6188820;23;20071;-90
2021/05/15 10:40:18;;;;;;;33.63;5.05;;;14.50;99.90;;;;;;6183544;23;20071;-90
2021/05/15 10:42:56;;;;;;;28.65;5.93;;;14.50;99.90;;;;;;6183920;23;20021;-89
2021/05/15 10:45:35;;;;;;;35.28;6.65;;;14.50;99.90;;;;;;6184562;23;20025;-88
2021/05/15 10:48:24;;;;;;;35.50;5.75;;;14.50;99.90;;;;;;6184306;23;20032;-90
2021/05/15 10:50:57;;;;;;;32.75;5.88;;;14.40;99.90;;;;;;6183670;23;20016;-90
2021/05/15 10:53:28;;;;;;;31.60;5.25;;;14.40;99.90;;;;;;6184061;23;20025;-90
2021/05/15 10:56:17;;;;;;;30.70;5.72;;;14.30;99.90;;;;;;6184853;23;20017;-89
2021/05/15 10:58:46;;;;;;;35.53;6.78;;;14.30;99.90;;;;;;6173702;23;20090;-87
2021/05/15 11:01:20;;;;;;;31.35;5.65;;;14.30;99.90;;;;;;6181852;23;20021;-87
2021/05/15 11:03:48;;;;;;;36.17;5.95;;;14.20;99.90;;;;;;6182952;23;20017;-86
2021/05/15 11:06:20;;;;;;;27.98;5.85;;;14.10;99.90;;;;;;6182207;23;20080;-86
2021/05/15 11:09:05;;;;;;;38.60;6.47;;;14.10;99.90;;;;;;6182911;23;20020;-87
2021/05/15 11:11:43;;;;;;;37.30;6.30;;;14.10;99.90;;;;;;6170485;23;20020;-87
2021/05/15 11:14:29;;;;;;;36.55;6.28;;;14.10;99.90;;;;;;6182475;23;20024;-87
2021/05/15 11:17:22;;;;;;;35.58;6.03;;;14.10;99.90;;;;;;6182764;23;20017;-87
2021/05/15 11:19:50;;;;;;;37.95;6.47;;;14.10;99.90;;;;;;6173644;23;20013;-87
2021/05/15 11:22:19;;;;;;;41.08;6.90;;;14.00;99.90;;;;;;6181944;23;20400;-87
2021/05/15 11:24:54;;;;;;;37.25;7.15;;;14.00;99.90;;;;;;6184325;23;20028;-87
2021/05/15 11:27:23;;;;;;;46.47;7.10;;;14.10;99.90;;;;;;6183652;23;20017;-87
2021/05/15 11:30:12;;;;;;;35.85;5.93;;;14.10;99.90;;;;;;6182686;23;20024;-87
2021/05/15 11:32:40;;;;;;;45.97;7.15;;;14.10;99.90;;;;;;6183678;23;20025;-85
2021/05/15 11:35:08;;;;;;;38.58;6.47;;;14.00;99.90;;;;;;6182098;23;20021;-88
2021/05/15 11:37:35;;;;;;;48.97;7.30;;;13.90;99.90;;;;;;6184546;23;20018;-86
2021/05/15 11:40:03;;;;;;;45.13;6.95;;;13.80;99.90;;;;;;6184808;23;20021;-87
2021/05/15 11:42:31;;;;;;;49.47;7.65;;;13.90;99.90;;;;;;6184231;23;20068;-86
2021/05/15 11:44:58;;;;;;;59.35;8.32;;;13.80;99.90;;;;;;6186178;23;20028;-85
2021/05/15 11:47:25;;;;;;;44.13;7.07;;;13.80;99.90;;;;;;6185530;23;20081;-86
2021/05/15 11:49:57;;;;;;;61.42;9.13;;;13.80;99.90;;;;;;6184262;23;20021;-86
2021/05/15 11:52:35;;;;;;;43.08;7.28;;;13.70;99.90;;;;;;6183913;23;20017;-85
2021/05/15 11:55:03;;;;;;;35.03;7.43;;;13.60;99.90;;;;;;6184499;23;20017;-86
2021/05/15 11:57:31;;;;;;;40.30;7.20;;;13.60;99.90;;;;;;6183559;23;20017;-86
2021/05/15 12:00:09;;;;;;;50.67;8.00;;;13.40;99.90;;;;;;6184777;23;20024;-87
2021/05/15 12:02:46;;;;;;;57.67;8.30;;;13.40;99.90;;;;;;6184427;23;20013;-88
2021/05/15 12:05:17;;;;;;;41.90;6.70;;;13.30;99.90;;;;;;6184943;23;20021;-85
2021/05/15 12:07:48;;;;;;;34.33;6.47;;;13.30;99.90;;;;;;6184436;23;20017;-86
2021/05/15 12:10:18;;;;;;;36.47;6.03;;;13.20;99.90;;;;;;6184448;23;20021;-86
2021/05/15 12:12:59;;;;;;;33.38;6.50;;;13.10;99.90;;;;;;6185519;23;20021;-87
2021/05/15 12:15:29;;;;;;;37.72;5.22;;;13.10;99.90;;;;;;6183869;23;20071;-87
2021/05/15 12:17:58;;;;;;;30.15;4.38;;;13.00;99.90;;;;;;6184803;23;20095;-86
2021/05/15 12:20:27;;;;;;;;;;;13.00;99.90;;;;;;6184231;23;20075;-86
2021/05/15 12:23:14;;;;;;;17.75;2.92;;;12.80;99.90;;;;;;6184199;23;20403;-87
2021/05/15 12:26:03;;;;;;;8.88;1.80;;;12.80;99.90;;;;;;6183840;23;20109;-88
2021/05/15 12:28:31;;;;;;;;;;;12.80;99.90;;;;;;6172130;23;20021;-86
2021/05/15 12:31:00;;;;;;;9.55;1.67;;;12.70;99.90;;;;;;6183824;23;19916;-86
2021/05/15 12:33:28;;;;;;;;;;;12.70;99.90;;;;;;6183945;23;20375;-86
2021/05/15 12:36:08;;;;;;;9.25;1.60;;;12.60;99.90;;;;;;6185912;23;19920;-86
2021/05/15 12:38:53;;;;;;;7.53;1.45;;;12.70;99.90;;;;;;6184030;23;20017;-88
2021/05/15 12:41:32;;;;;;;9.60;1.63;;;12.60;99.90;;;;;;6184103;23;20017;-88
2021/05/15 12:44:05;;;;;;;13.65;1.60;;;12.60;99.90;;;;;;6184558;23;20013;-88
2021/05/15 12:46:37;;;;;;;6.85;1.38;;;12.70;99.90;;;;;;6184284;23;20408;-88
2021/05/15 12:49:07;;;;;;;9.13;1.58;;;12.70;99.90;;;;;;6185228;23;20017;-91
2021/05/15 12:51:50;;;;;;;5.97;1.20;;;12.90;99.90;;;;;;6185856;23;20068;-89
2021/05/15 12:54:27;;;;;;;10.18;1.35;;;12.90;99.90;;;;;;6188112;23;20025;-87
2021/05/15 12:57:00;;;;;;;4.82;1.13;;;13.00;99.90;;;;;;6185722;23;20043;-86
2021/05/15 12:59:42;;;;;;;7.65;1.42;;;13.00;99.90;;;;;;6186835;23;20092;-87
2021/05/15 13:02:21;;;;;;;10.65;1.40;;;13.10;99.90;;;;;;6184334;23;20021;-88
2021/05/15 13:04:57;;;;;;;7.93;1.45;;;13.10;99.90;;;;;;6184452;23;20067;-88
2021/05/15 13:07:33;;;;;;;13.02;1.90;;;13.20;99.90;;;;;;6183771;23;20023;-89
2021/05/15 13:10:02;;;;;;;11.48;1.80;;;13.60;99.90;;;;;;6183969;23;20020;-88
2021/05/15 13:12:29;;;;;;;11.57;2.10;;;13.90;99.90;;;;;;6185891;23;20032;-88
2021/05/15 13:14:56;;;;;;;7.90;1.50;;;14.10;99.90;;;;;;6187346;23;20017;-90
2021/05/15 13:17:23;;;;;;;14.25;2.40;;;14.20;99.90;;;;;;6185584;23;20024;-90
2021/05/15 13:19:50;;;;;;;16.77;2.42;;;14.30;99.90;;;;;;6184931;23;20024;-92
2021/05/15 13:22:18;;;;;;;16.30;3.38;;;14.60;99.90;;;;;;6184058;23;20017;-92
2021/05/15 13:24:45;;;;;;;23.52;3.17;;;14.60;99.90;;;;;;6186701;23;20016;-91
2021/05/15 13:27:12;;;;;;;17.27;3.15;;;14.50;99.90;;;;;;6184815;23;20021;-92
2021/05/15 13:29:40;;;;;;;18.48;3.03;;;14.50;99.90;;;;;;6186112;23;20025;-93
2021/05/15 13:32:07;;;;;;;26.95;4.55;;;14.50;99.90;;;;;;6188638;23;20095;-90
2021/05/15 13:34:34;;;;;;;22.98;3.70;;;14.40;99.90;;;;;;6186092;23;20075;-92
2021/05/15 13:37:02;;;;;;;29.30;4.63;;;14.40;99.90;;;;;;6185082;23;20017;-93
2021/05/15 13:39:30;;;;;;;26.20;5.10;;;14.40;99.90;;;;;;6173161;23;20023;-92
2021/05/15 13:41:57;;;;;;;38.42;5.63;;;14.30;99.90;;;;;;6185132;23;20017;-90
2021/05/15 13:44:25;;;;;;;33.83;5.68;;;14.20;99.90;;;;;;6184074;23;20448;-91
2021/05/15 13:46:52;;;;;;;39.63;6.88;;;14.30;99.90;;;;;;6186131;23;20025;-92
2021/05/15 13:49:21;;;;;;;42.65;7.53;;;14.50;99.90;;;;;;6185082;23;20020;-92
2021/05/15 13:51:48;;;;;;;37.10;6.20;;;14.60;99.90;;;;;;6185197;23;20016;-92
2021/05/15 13:54:15;;;;;;;46.38;7.30;;;14.80;99.90;;;;;;6184999;23;20084;-92
2021/05/15 13:56:42;;;;;;;30.48;6.28;;;14.80;99.90;;;;;;6184845;23;20017;-94
2021/05/15 13:59:11;;;;;;;49.50;7.90;;;14.90;99.90;;;;;;6184505;23;20023;-91
2021/05/15 14:01:38;;;;;;;44.83;7.03;;;14.80;99.90;;;;;;6186612;23;20020;-92
2021/05/15 14:04:06;;;;;;;38.28;6.63;;;14.80;99.90;;;;;;6184104;23;20017;-91
2021/05/15 14:06:34;;;;;;;42.97;7.20;;;14.80;99.90;;;;;;6185213;23;20028;-93
2021/05/15 14:09:02;;;;;;;40.40;6.50;;;14.70;99.90;;;;;;6184979;23;20021;-93
2021/05/15 14:11:29;;;;;;;37.90;6.83;;;14.80;99.90;;;;;;6173222;23;20013;-92
2021/05/15 14:13:56;;;;;;;40.50;6.47;;;14.80;99.90;;;;;;6184769;23;20025;-91
2021/05/15 14:16:24;;;;;;;33.50;5.22;;;14.90;99.90;;;;;;6183961;23;20052;-92
2021/05/15 14:18:51;;;;;;;40.33;6.20;;;15.00;99.90;;;;;;6185424;23;20013;-90
2021/05/15 14:21:19;;;;;;;41.07;7.53;;;15.10;99.90;;;;;;6184012;23;20017;-91
2021/05/15 14:23:46;;;;;;;34.17;6.53;;;15.20;99.90;;;;;;6184789;23;20023;-91
2021/05/15 14:26:13;;;;;;;39.90;7.05;;;15.30;99.90;;;;;;6184238;23;20075;-91
2021/05/15 14:28:40;;;;;;;35.97;5.95;;;15.40;99.90;;;;;;6186034;23;20025;-90
2021/05/15 14:31:07;;;;;;;38.88;5.65;;;15.40;99.90;;;;;;6183324;23;20028;-90
2021/05/15 14:33:34;;;;;;;38.17;6.75;;;15.50;99.90;;;;;;6184620;23;20020;-90
2021/05/15 14:36:01;;;;;;;39.50;6.13;;;15.40;99.90;;;;;;6184358;23;20079;-90
2021/05/15 14:38:28;;;;;;;29.80;5.40;;;15.50;99.90;;;;;;6185953;23;20336;-90
2021/05/15 14:40:55;;;;;;;36.53;6.40;;;15.50;99.90;;;;;;6184877;23;20020;-93
2021/05/15 14:43:22;;;;;;;31.20;5.63;;;15.40;99.90;;;;;;6184120;23;20526;-91
2021/05/15 14:45:49;;;;;;;35.78;6.20;;;15.50;99.90;;;;;;6160628;23;20384;-90
2021/05/15 14:48:32;;;;;;;36.90;6.22;;;15.50;99.90;;;;;;6187395;23;20013;-89
2021/05/15 14:51:09;;;;;;;34.05;5.22;;;15.50;99.90;;;;;;6186648;23;20064;-91
2021/05/15 14:53:40;;;;;;;42.72;6.57;;;15.60;99.90;;;;;;6175122;23;20013;-91
2021/05/15 14:56:10;;;;;;;31.02;6.43;;;15.60;99.90;;;;;;6184625;23;20092;-92
2021/05/15 14:58:37;;;;;;;40.78;6.63;;;15.60;99.90;;;;;;6184341;23;20020;-89
2021/05/15 15:01:09;;;;;;;33.67;5.97;;;15.60;99.90;;;;;;6185262;23;20476;-94
2021/05/15 15:03:38;;;;;;;39.42;6.07;;;15.50;99.90;;;;;;6184116;23;20759;-93
2021/05/15 15:06:06;;;;;;;32.53;5.90;;;15.50;99.90;;;;;;6184052;23;20016;-93
2021/05/15 15:08:33;;;;;;;24.58;4.45;;;15.60;99.90;;;;;;6186126;23;20009;-90
2021/05/15 15:11:00;;;;;;;28.88;6.03;;;15.60;99.90;;;;;;6184601;23;20072;-90
2021/05/15 15:13:27;;;;;;;23.85;5.80;;;15.60;99.90;;;;;;6187578;23;20091;-93
2021/05/15 15:15:54;;;;;;;32.95;5.40;;;15.40;99.90;;;;;;6190402;23;20322;-91
2021/05/15 15:18:21;;;;;;;29.55;5.38;;;15.30;99.90;;;;;;6194515;23;20021;-91
2021/05/15 15:20:48;;;;;;;33.42;6.28;;;15.20;99.90;;;;;;6200399;23;20067;-92
2021/05/15 15:23:17;;;;;;;29.38;5.82;;;15.20;99.90;;;;;;6185465;23;20538;-89
2021/05/15 15:25:47;;;;;;;30.50;4.40;;;15.10;99.90;;;;;;6185872;23;20420;-90
2021/05/15 15:28:15;;;;;;;28.52;4.93;;;15.10;99.90;;;;;;6185211;23;20021;-90
2021/05/15 15:30:43;;;;;;;29.23;4.93;;;15.20;99.90;;;;;;6185437;23;20013;-88
2021/05/15 15:33:11;;;;;;;28.30;5.15;;;15.20;99.90;;;;;;6185487;23;20071;-92
2021/05/15 15:35:39;;;;;;;32.75;5.15;;;15.30;99.90;;;;;;6186079;23;20028;-91
2021/05/15 15:38:06;;;;;;;35.70;5.28;;;15.40;99.90;;;;;;6185170;23;20017;-90
2021/05/15 15:40:37;;;;;;;26.55;5.15;;;15.30;99.90;;;;;;6185552;23;20067;-89
2021/05/15 15:43:04;;;;;;;25.10;4.68;;;15.40;99.90;;;;;;6186583;23;20020;-88
2021/05/15 15:45:32;;;;;;;26.27;4.72;;;15.40;99.90;;;;;;6185570;23;20071;-88
2021/05/15 15:47:59;;;;;;;21.83;4.20;;;15.40;99.90;;;;;;6185422;23;20083;-90
2021/05/15 15:50:26;;;;;;;26.30;4.68;;;15.40;99.90;;;;;;6186190;23;20487;-91
2021/05/15 15:52:54;;;;;;;17.38;4.07;;;15.50;99.90;;;;;;6185887;23;20013;-91
2021/05/15 15:55:20;;;;;;;20.55;4.32;;;15.50;99.90;;;;;;6184655;23;20025;-89
2021/05/15 15:57:47;;;;;;;21.20;4.28;;;15.50;99.90;;;;;;6185409;23;20023;-89
2021/05/15 16:00:15;;;;;;;20.73;3.63;;;15.60;99.90;;;;;;6185646;23;20016;-87
2021/05/15 16:02:44;;;;;;;21.67;4.25;;;15.50;99.90;;;;;;6188044;23;20095;-92
2021/05/15 16:05:12;;;;;;;24.73;4.70;;;15.50;99.90;;;;;;6187318;23;20393;-92
2021/05/15 16:07:39;;;;;;;22.55;5.72;;;15.50;99.90;;;;;;6185571;23;20079;-92
2021/05/15 16:10:08;;;;;;;23.67;4.43;;;15.40;99.90;;;;;;6182479;23;20035;-91
2021/05/15 16:12:35;;;;;;;23.48;3.97;;;15.30;99.90;;;;;;6185171;23;20021;-89
2021/05/15 16:15:04;;;;;;;24.70;4.15;;;15.30;99.90;;;;;;6172841;23;20095;-90
2021/05/15 16:17:31;;;;;;;22.05;4.00;;;15.30;99.90;;;;;;6172368;23;20071;-89
2021/05/15 16:19:58;;;;;;;25.73;3.85;;;15.30;99.90;;;;;;6188733;23;20017;-90
2021/05/15 16:22:25;;;;;;;29.33;4.97;;;15.20;99.90;;;;;;6194986;23;20029;-91
2021/05/15 16:24:53;;;;;;;21.67;5.47;;;15.20;99.90;;;;;;6188392;23;20017;-91
2021/05/15 16:27:20;;;;;;;21.25;4.95;;;15.20;99.90;;;;;;6184190;23;20543;-90
2021/05/15 16:29:47;;;;;;;19.10;4.50;;;15.20;99.90;;;;;;6185299;23;20471;-93
2021/05/15 16:32:14;;;;;;;28.75;5.25;;;15.20;99.90;;;;;;6183821;23;20397;-93
2021/05/15 16:34:41;;;;;;;25.15;4.28;;;15.10;99.90;;;;;;6185794;23;20385;-92
2021/05/15 16:37:08;;;;;;;36.03;6.63;;;15.20;99.90;;;;;;6184018;23;20017;-91
2021/05/15 16:39:35;;;;;;;27.27;4.82;;;15.20;99.90;;;;;;6184495;23;20013;-93
2021/05/15 16:42:03;;;;;;;26.98;4.68;;;15.20;99.90;;;;;;6184557;23;20325;-91
2021/05/15 16:44:30;;;;;;;29.98;5.03;;;15.10;99.90;;;;;;6184606;23;20013;-91
2021/05/15 16:47:01;;;;;;;33.25;5.22;;;15.10;99.90;;;;;;6182698;23;20025;-91
2021/05/15 16:49:30;;;;;;;27.48;4.93;;;15.00;99.90;;;;;;6183385;23;20017;-91
2021/05/15 16:51:57;;;;;;;26.27;5.38;;;15.10;99.90;;;;;;6184894;23;20336;-90
2021/05/15 16:54:25;;;;;;;26.77;6.33;;;15.10;99.90;;;;;;6177903;23;20037;-89
2021/05/15 16:56:53;;;;;;;33.25;5.03;;;15.00;99.90;;;;;;6180662;23;20025;-90
2021/05/15 16:59:20;;;;;;;21.17;5.33;;;14.90;99.90;;;;;;6180164;23;20436;-91
2021/05/15 17:01:47;;;;;;;31.23;5.00;;;14.80;99.90;;;;;;6180851;23;20248;-91
2021/05/15 17:04:21;;;;;;;28.48;4.85;;;14.80;99.90;;;;;;6180442;23;20025;-89
2021/05/15 17:06:49;;;;;;;21.63;4.07;;;14.80;99.90;;;;;;6180797;23;20495;-90
2021/05/15 17:09:18;;;;;;;25.73;4.22;;;14.70;99.90;;;;;;6180895;23;20021;-89
2021/05/15 17:11:45;;;;;;;19.73;4.30;;;14.70;99.90;;;;;;6181384;23;20029;-88
2021/05/15 17:14:13;;;;;;;22.23;3.97;;;14.60;99.90;;;;;;6180616;23;20027;-89
2021/05/15 17:16:40;;;;;;;25.35;4.10;;;14.60;99.90;;;;;;6181623;23;20025;-90
2021/05/15 17:19:07;;;;;;;17.85;3.88;;;14.60;99.90;;;;;;6181109;23;20021;-89
2021/05/15 17:21:34;;;;;;;22.00;3.65;;;14.70;99.90;;;;;;6181987;23;20017;-90
2021/05/15 17:24:03;;;;;;;23.10;4.05;;;14.90;99.90;;;;;;6180906;23;20017;-88
2021/05/15 17:26:31;;;;;;;21.60;4.75;;;14.90;99.90;;;;;;6183120;23;20338;-90
2021/05/15 17:28:59;;;;;;;27.27;4.47;;;15.00;99.90;;;;;;6182316;23;20021;-89
2021/05/15 17:31:27;;;;;;;23.20;4.20;;;15.10;99.90;;;;;;6182403;23;20083;-89
2021/05/15 17:33:54;;;;;;;28.73;4.43;;;15.10;99.90;;;;;;6182787;23;20021;-91
2021/05/15 17:36:21;;;;;;;23.00;4.53;;;15.00;99.90;;;;;;6185099;23;20041;-90
2021/05/15 17:38:50;;;;;;;19.65;3.78;;;14.90;99.90;;;;;;6185731;23;20028;-92
2021/05/15 17:41:20;;;;;;;27.15;5.13;;;14.90;99.90;;;;;;6192016;23;20089;-89
2021/05/15 17:43:48;;;;;;;24.88;4.15;;;15.00;99.90;;;;;;6188571;23;20021;-92
2021/05/15 17:46:15;;;;;;;21.55;3.67;;;15.10;99.90;;;;;;6185437;23;20013;-92
2021/05/15 17:48:42;;;;;;;19.70;3.70;;;15.10;99.90;;;;;;6181984;23;20503;-89
2021/05/15 17:51:15;;;;;;;21.77;4.32;;;15.10;99.90;;;;;;6181020;23;20095;-88
2021/05/15 17:53:52;;;;;;;29.45;4.63;;;15.20;99.90;;;;;;6180575;23;20021;-90
2021/05/15 17:56:25;;;;;;;20.98;3.83;;;15.30;99.90;;;;;;6181243;23;20099;-88
2021/05/15 17:58:53;;;;;;;20.15;4.10;;;15.40;99.90;;;;;;6182793;23;20856;-87
2021/05/15 18:01:22;;;;;;;21.27;4.30;;;15.50;99.90;;;;;;6181819;23;20017;-92
2021/05/15 18:03:51;;;;;;;28.88;5.22;;;15.40;99.90;;;;;;6180939;23;20683;-91
2021/05/15 18:06:18;;;;;;;21.77;3.97;;;15.40;99.90;;;;;;6182678;23;20083;-90
2021/05/15 18:08:47;;;;;;;24.67;4.47;;;15.20;99.90;;;;;;6183962;23;20021;-91
2021/05/15 18:11:14;;;;;;;21.27;4.18;;;15.20;99.90;;;;;;6182544;23;20009;-91
2021/05/15 18:13:42;;;;;;;27.45;5.25;;;15.10;99.90;;;;;;6182214;23;20472;-90
2021/05/15 18:16:10;;;;;;;29.60;4.50;;;14.90;99.90;;;;;;6182898;23;20020;-90
2021/05/15 18:18:37;;;;;;;27.23;5.55;;;14.80;99.90;;;;;;6182271;23;20029;-90
2021/05/15 18:21:06;;;;;;;25.67;4.20;;;14.60;99.90;;;;;;6180953;23;20076;-90
2021/05/15 18:23:35;;;;;;;26.08;5.15;;;14.40;99.90;;;;;;6185299;23;20017;-89
2021/05/15 18:26:02;;;;;;;29.33;4.97;;;14.20;99.90;;;;;;6183051;23;20024;-89
2021/05/15 18:28:31;;;;;;;25.67;4.40;;;14.10;99.90;;;;;;6176269;23;20024;-89
2021/05/15 18:30:59;;;;;;;36.40;5.15;;;14.10;99.90;;;;;;6189716;23;20021;-90
2021/05/15 18:33:27;;;;;;;33.25;5.68;;;14.00;99.90;;;;;;6179709;23;20021;-90
2021/05/15 18:35:54;;;;;;;30.55;6.32;;;14.00;99.90;;;;;;6181832;23;20028;-89
2021/05/15 18:38:22;;;;;;;36.83;8.30;;;13.90;99.90;;;;;;6183464;23;20025;-90
2021/05/15 18:40:49;;;;;;;35.67;6.75;;;13.80;99.90;;;;;;6183792;23;20021;-91
2021/05/15 18:43:19;;;;;;;44.67;7.20;;;13.80;99.90;;;;;;6182067;23;20091;-88
2021/05/15 18:45:47;;;;;;;34.63;5.47;;;13.80;99.90;;;;;;6182899;23;20023;-90
2021/05/15 18:48:14;;;;;;;40.25;7.63;;;13.70;99.90;;;;;;6182697;23;20021;-89
2021/05/15 18:50:41;;;;;;;37.45;7.90;;;13.70;99.90;;;;;;6182452;23;20021;-91
2021/05/15 18:53:08;;;;;;;39.83;7.13;;;13.60;99.90;;;;;;6181778;23;20028;-89
2021/05/15 18:55:36;;;;;;;38.30;7.63;;;13.60;99.90;;;;;;6181059;23;20404;-89
2021/05/15 18:58:12;;;;;;;36.88;6.85;;;13.60;99.90;;;;;;6183047;23;20055;-90
2021/05/15 19:00:39;;;;;;;40.80;6.18;;;13.50;99.90;;;;;;6182428;23;20021;-89
2021/05/15 19:03:06;;;;;;;44.28;6.35;;;13.50;99.90;;;;;;6181571;23;20039;-90
2021/05/15 19:05:33;;;;;;;32.25;5.97;;;13.50;99.90;;;;;;6182344;23;20068;-91
2021/05/15 19:08:00;;;;;;;36.60;6.22;;;13.50;99.90;;;;;;6181675;23;20110;-90
2021/05/15 19:10:27;;;;;;;45.38;6.38;;;13.40;99.90;;;;;;6181653;23;20021;-88
2021/05/15 19:12:55;;;;;;;43.90;6.43;;;13.40;99.90;;;;;;6182411;23;20022;-88
2021/05/15 19:15:22;;;;;;;46.50;7.00;;;13.40;99.90;;;;;;6182880;23;20027;-89
2021/05/15 19:18:04;;;;;;;49.50;6.40;;;13.30;99.90;;;;;;6181391;23;20068;-93
2021/05/15 19:20:31;;;;;;;41.25;5.43;;;13.30;99.90;;;;;;6168924;23;20028;-89
2021/05/15 19:22:58;;;;;;;48.80;6.55;;;13.30;99.90;;;;;;6181977;23;20041;-89
2021/05/15 19:25:25;;;;;;;44.88;6.65;;;13.30;99.90;;;;;;6181275;23;22492;-90
2021/05/15 19:27:52;;;;;;;43.55;6.10;;;13.20;99.90;;;;;;6182492;23;20468;-91
2021/05/15 19:30:19;;;;;;;51.17;6.05;;;13.20;99.90;;;;;;6181281;23;20017;-89
2021/05/15 19:32:46;;;;;;;50.90;6.70;;;13.20;99.90;;;;;;6182836;23;20032;-91
2021/05/15 19:35:13;;;;;;;41.85;6.13;;;13.20;99.90;;;;;;6188768;23;20016;-91
2021/05/15 19:37:41;;;;;;;37.17;6.63;;;13.20;99.90;;;;;;6185057;23;20016;-94
2021/05/15 19:40:09;;;;;;;44.75;6.45;;;13.10;99.90;;;;;;6182821;23;20021;-92
2021/05/15 19:42:36;;;;;;;59.72;7.10;;;13.10;99.90;;;;;;6183035;23;20070;-88
2021/05/15 19:45:04;;;;;;;43.75;6.68;;;13.10;99.90;;;;;;6182501;23;20550;-93
2021/05/15 19:47:31;;;;;;;46.50;6.38;;;13.10;99.90;;;;;;6182253;23;20468;-94
2021/05/15 19:49:58;;;;;;;44.05;6.32;;;13.10;99.90;;;;;;6182858;23;20021;-91
2021/05/15 19:52:40;;;;;;;43.90;6.40;;;13.10;99.90;;;;;;6183903;23;20013;-92
2021/05/15 19:55:07;;;;;;;46.53;7.30;;;13.00;99.90;;;;;;6185364;23;20035;-92
2021/05/15 19:57:34;;;;;;;53.40;7.18;;;13.00;99.90;;;;;;6188041;23;20530;-92
2021/05/15 20:00:04;;;;;;;54.58;6.90;;;13.00;99.90;;;;;;6188856;23;20088;-92
2021/05/15 20:02:34;;;;;;;52.80;6.85;;;13.00;99.90;;;;;;6181348;23;20017;-93
2021/05/15 20:05:01;;;;;;;48.30;7.15;;;13.00;99.90;;;;;;6196884;23;20473;-92
2021/05/15 20:07:28;;;;;;;53.10;7.05;;;13.00;99.90;;;;;;6184704;23;20020;-93
2021/05/15 20:09:55;;;;;;;50.35;7.32;;;13.00;99.90;;;;;;6184888;23;20635;-88
2021/05/15 20:12:22;;;;;;;53.25;7.07;;;13.00;99.90;;;;;;6184666;23;20118;-92
2021/05/15 20:14:50;;;;;;;46.67;7.35;;;13.00;99.90;;;;;;6184665;23;20476;-91
2021/05/15 20:17:17;;;;;;;45.17;6.35;;;13.00;99.90;;;;;;6183331;23;20017;-90